Hauptseite
METAR-TAF:

METAR-TAF

Flughäfen :

Flughafen Venedig-Tessera

Venedig, Italien

Breite: 45-30N, Länge: 012-20E, Höhe: 2 m

Beobachtung

Neuester Wetterbericht von vor 27 Minuten, um 19:50 UTC
Wind 1 kt aus unterschiedlichen Richtungen
Temperatur 0°C
Luftfeuchtigkeit 86%
Luftdruck 1021 hPa
Sichtweite 10 km oder mehr
keine Wolken unter 1500 m und keine Kumulonimbus oder Gewitterwolken

METAR: LIPZ 151950Z VRB01KT CAVOK 00/M02 Q1021 NOSIG

Zeit: 21:17 (20:17 UTC)

Prognose

Neuester Wetterbericht von vor 3 Stunden und 17 Minuten, um 17:00 UTC
Gültige Prognose vom 15 um 18 UTC bis 16 um 24 UTC
Wind 5 kt aus unterschiedlichen Richtungen
Sichtweite 10 km oder mehr
keine Wolken unter 1500 m und keine Kumulonimbus oder Gewitterwolken
Zeitweise
vom 16 um 18 UTC bis 16 um 24 UTC
Regen, Schnee

TAF: LIPZ 151700Z 1518/1624 VRB05KT CAVOK TEMPO 1618/1624 RASN

Wetterbeobachtungen und Prognosen von mehr als 4000 Flughäfen (METAR und TAF Bericht).

Die verfügbaren Stationen werden durch gelbe und rote Markierungen auf der Karte dargestellt.

Führen Sie die Maus auf sie, um den Namen der Station zu sehen.

Darauf klicken, um die Beobachtung von Wetterbeobachtungen und Prognosen zu sehen.

Um die Karte zu ändern : klicken Sie auf den grünen Tasten mit einem schwarzen Kreuz Zum Vergrößern, auf den grünen Button mit einem Gedankenstrich zu verkleinern, oder auf die grünen Pfeile für benachbarte Karten.


METAR-TAF: